createdAt,value
2018-03-23T00:00:14.422Z,45.20
2018-03-23T00:01:15.871Z,44.60
2018-03-23T00:02:17.289Z,44.60
2018-03-23T00:03:18.712Z,44.40
2018-03-23T00:04:20.118Z,44.40
2018-03-23T00:05:21.513Z,44.30
2018-03-23T00:06:22.926Z,44.30
2018-03-23T00:07:24.330Z,44.30
2018-03-23T00:08:25.745Z,44.20
2018-03-23T00:09:27.149Z,44.20
2018-03-23T00:10:28.907Z,44.30
2018-03-23T00:11:30.323Z,44.20
2018-03-23T00:12:32.838Z,44.50
2018-03-23T00:13:34.246Z,44.00
2018-03-23T00:14:35.632Z,44.00
2018-03-23T00:15:37.058Z,44.20
2018-03-23T00:16:38.446Z,44.20
2018-03-23T00:17:40.956Z,44.40
2018-03-23T00:18:42.622Z,44.40
2018-03-23T00:19:44.010Z,44.50
2018-03-23T00:20:45.422Z,44.50
2018-03-23T00:21:46.818Z,44.80
2018-03-23T00:22:49.011Z,45.40
2018-03-23T00:23:50.442Z,44.80
2018-03-23T00:25:54.970Z,44.80
2018-03-23T00:26:56.369Z,44.90
2018-03-23T00:27:57.760Z,45.00
2018-03-23T00:28:59.162Z,45.00
2018-03-23T00:30:00.554Z,44.90
2018-03-23T00:31:01.990Z,44.90
2018-03-23T00:32:03.394Z,44.90
2018-03-23T00:33:05.542Z,45.60
2018-03-23T00:34:06.927Z,44.90
2018-03-23T00:35:09.070Z,45.70
2018-03-23T00:36:10.498Z,45.00
2018-03-23T00:37:12.838Z,44.90
2018-03-23T00:38:15.010Z,45.10
2018-03-23T00:40:06.412Z,44.90
2018-03-23T00:41:08.550Z,45.50
2018-03-23T00:42:10.226Z,44.90
2018-03-23T00:43:11.838Z,45.10
2018-03-23T00:44:13.242Z,45.00
2018-03-23T00:45:14.650Z,44.90
2018-03-23T00:47:19.426Z,45.10
2018-03-23T00:48:20.826Z,45.10
2018-03-23T00:49:22.266Z,45.10
2018-03-23T00:50:23.662Z,45.60
2018-03-23T00:51:25.098Z,45.30
2018-03-23T00:52:26.519Z,45.20
2018-03-23T00:53:27.962Z,45.30
2018-03-23T00:54:29.373Z,45.30
2018-03-23T00:55:30.793Z,45.30
2018-03-23T00:56:32.190Z,45.40
2018-03-23T00:57:33.870Z,45.60
2018-03-23T00:58:35.271Z,45.60
2018-03-23T00:59:36.679Z,45.50
2018-03-23T01:00:38.131Z,45.60
2018-03-23T01:01:39.542Z,45.50
2018-03-23T01:02:42.958Z,45.70
2018-03-23T01:03:44.396Z,45.40
2018-03-23T01:04:46.910Z,45.40
2018-03-23T01:06:58.467Z,45.30
2018-03-23T01:08:00.139Z,45.40
2018-03-23T01:09:01.558Z,45.40
2018-03-23T01:10:03.018Z,45.60
2018-03-23T01:11:04.438Z,45.70
2018-03-23T01:12:05.841Z,45.70
2018-03-23T01:13:07.630Z,45.80
2018-03-23T01:14:09.774Z,46.50
2018-03-23T01:16:14.273Z,46.00
2018-03-23T01:17:45.230Z,46.20
2018-03-23T01:18:46.638Z,46.30
2018-03-23T01:19:48.031Z,46.10
2018-03-23T01:20:49.430Z,46.10
2018-03-23T01:22:53.961Z,46.10
2018-03-23T01:23:55.362Z,46.10
2018-03-23T01:24:56.762Z,46.10
2018-03-23T01:25:58.165Z,46.10
2018-03-23T01:27:30.174Z,46.10
2018-03-23T01:28:31.590Z,46.10
2018-03-23T01:29:33.262Z,46.10
2018-03-23T01:30:34.673Z,46.20
2018-03-23T01:31:36.814Z,46.80
2018-03-23T01:32:38.230Z,46.50
2018-03-23T01:33:39.622Z,46.60
2018-03-23T01:34:43.054Z,46.60
2018-03-23T01:35:44.446Z,46.50
2018-03-23T01:36:47.354Z,46.70
2018-03-23T01:37:48.754Z,46.50
2018-03-23T01:40:43.709Z,46.60
2018-03-23T01:41:45.142Z,46.70
2018-03-23T01:42:46.554Z,46.60
2018-03-23T01:44:22.889Z,47.60
2018-03-23T01:45:24.295Z,46.80
2018-03-23T01:46:27.229Z,47.30
2018-03-23T01:47:28.601Z,47.00
2018-03-23T01:48:30.007Z,47.10
2018-03-23T01:49:31.410Z,47.00
2018-03-23T01:50:32.806Z,47.10
2018-03-23T01:52:25.234Z,47.40
2018-03-23T01:53:42.690Z,47.40
2018-03-23T01:54:44.838Z,48.60
2018-03-23T01:57:53.485Z,48.10
2018-03-23T01:58:54.890Z,47.50
2018-03-23T01:59:57.076Z,47.80
2018-03-23T02:00:58.874Z,48.10
2018-03-23T02:02:00.305Z,48.20
2018-03-23T02:03:01.743Z,48.20
2018-03-23T02:04:42.906Z,48.70
2018-03-23T02:05:44.302Z,48.10
2018-03-23T02:06:45.706Z,47.90
2018-03-23T02:07:47.108Z,48.10
2018-03-23T02:08:48.542Z,48.20
2018-03-23T02:09:50.689Z,49.20
2018-03-23T02:10:52.100Z,48.30
2018-03-23T02:11:53.510Z,48.50
2018-03-23T02:12:54.910Z,48.30
2018-03-23T02:13:56.357Z,48.30
2018-03-23T02:14:58.494Z,49.50
2018-03-23T02:16:00.666Z,48.80
2018-03-23T02:17:02.070Z,48.70
2018-03-23T02:19:52.004Z,48.80
2018-03-23T02:20:53.426Z,48.50
2018-03-23T02:21:54.834Z,48.70
2018-03-23T02:22:56.322Z,48.90
2018-03-23T02:23:57.726Z,49.20
2018-03-23T02:24:59.513Z,48.90
2018-03-23T02:26:02.049Z,49.20
2018-03-23T02:27:04.219Z,49.90
2018-03-23T02:28:05.605Z,49.20
2018-03-23T02:29:06.994Z,49.10
2018-03-23T02:30:08.715Z,49.20
2018-03-23T02:31:10.150Z,49.20
2018-03-23T02:32:12.870Z,49.40
2018-03-23T02:33:15.006Z,50.10
2018-03-23T02:34:16.407Z,49.30
2018-03-23T18:31:02.869Z,53.30
2018-03-23T18:32:04.351Z,53.50
2018-03-23T18:33:05.774Z,53.50
2018-03-23T18:35:12.111Z,54.00
2018-03-23T18:36:14.284Z,54.20
2018-03-23T18:38:20.475Z,54.50
2018-03-23T18:42:31.246Z,54.30
2018-03-23T18:43:32.682Z,54.40
2018-03-23T18:44:35.503Z,54.60
2018-03-23T18:46:40.038Z,54.30
2018-03-23T18:47:41.713Z,54.40
2018-03-23T18:48:43.172Z,54.30
2018-03-23T18:49:44.558Z,54.40
2018-03-23T18:52:53.394Z,54.70
2018-03-23T18:55:20.802Z,54.50
2018-03-23T18:56:23.885Z,54.50
2018-03-23T19:00:36.138Z,54.30
2018-03-23T19:01:38.944Z,54.10
2018-03-23T19:03:43.469Z,53.60
2018-03-23T19:05:49.769Z,53.00
2018-03-23T19:07:57.305Z,52.30
2018-03-23T19:08:58.809Z,52.20
2018-03-23T19:11:05.264Z,52.10
2018-03-23T19:12:06.806Z,52.30
2018-03-23T19:13:08.237Z,52.40
2018-03-23T19:14:12.089Z,52.70
2018-03-23T19:15:13.509Z,52.70
2018-03-23T19:16:51.111Z,52.70
2018-03-23T19:17:52.605Z,52.70
2018-03-23T19:19:29.204Z,52.70
2018-03-23T19:20:32.089Z,52.70
2018-03-23T19:21:33.562Z,52.60
2018-03-23T19:22:34.975Z,52.60
2018-03-23T19:23:37.697Z,52.70
2018-03-23T19:24:39.332Z,52.90
2018-03-23T19:27:47.847Z,53.10
2018-03-23T19:28:50.236Z,53.00
2018-03-23T19:34:19.282Z,52.90
2018-03-23T19:35:20.676Z,52.90
2018-03-23T19:37:25.213Z,52.80
2018-03-23T19:39:24.355Z,52.70
2018-03-23T19:42:34.278Z,52.80
2018-03-23T19:43:35.688Z,52.70
2018-03-23T19:44:37.377Z,52.80
2018-03-23T19:45:41.498Z,52.60
2018-03-23T19:46:42.922Z,52.90
2018-03-23T19:48:47.445Z,53.00
2018-03-23T19:50:51.974Z,53.10
2018-03-23T19:51:53.387Z,53.10
2018-03-23T19:52:54.789Z,53.00
2018-03-23T19:53:56.189Z,53.00
2018-03-23T19:56:02.489Z,53.20
2018-03-23T19:57:07.572Z,53.40
2018-03-23T20:00:15.989Z,53.40
2018-03-23T20:01:19.007Z,53.50
2018-03-23T20:03:18.258Z,53.50
2018-03-23T20:04:22.138Z,53.50
2018-03-23T20:05:24.754Z,53.50
2018-03-23T20:06:26.670Z,53.50
2018-03-23T20:07:28.102Z,53.50
2018-03-23T20:09:32.622Z,53.60
2018-03-23T20:10:34.100Z,53.60
2018-03-23T20:11:36.248Z,53.80
2018-03-23T20:12:38.873Z,53.80
2018-03-23T20:14:49.586Z,53.60
2018-03-23T20:15:51.036Z,53.50
2018-03-23T20:16:52.440Z,53.30
2018-03-23T20:17:59.937Z,53.10
2018-03-23T20:19:01.347Z,53.20
2018-03-23T20:20:56.387Z,53.00
2018-03-23T20:21:58.760Z,53.80
2018-03-23T20:23:00.928Z,53.40
2018-03-23T20:24:08.626Z,53.40
2018-03-23T20:25:11.433Z,53.60
2018-03-23T20:26:12.925Z,53.70
2018-03-23T20:28:31.546Z,54.20
2018-03-23T20:29:33.942Z,54.30
2018-03-23T20:30:35.403Z,53.70
2018-03-23T20:31:43.086Z,53.80
2018-03-23T20:32:44.544Z,53.70
2018-03-23T20:34:49.184Z,53.60
2018-03-23T20:35:50.634Z,53.60
2018-03-23T20:36:52.077Z,53.70
2018-03-23T20:37:53.710Z,53.80
2018-03-23T20:38:56.252Z,53.80
2018-03-23T20:39:58.798Z,53.80
2018-03-23T20:41:00.205Z,53.70
2018-03-23T20:42:02.390Z,53.90
2018-03-23T20:43:04.562Z,54.00
2018-03-23T20:45:09.065Z,53.90
2018-03-23T20:46:10.544Z,53.90
2018-03-23T20:48:43.581Z,53.90
2018-03-23T20:49:46.118Z,53.90
2018-03-23T20:51:50.611Z,53.80
2018-03-23T20:52:53.350Z,56.20
2018-03-23T20:54:59.369Z,53.60
2018-03-23T20:56:01.498Z,54.20
2018-03-23T20:57:02.894Z,53.60
2018-03-23T21:00:10.589Z,53.40
2018-03-23T21:10:58.514Z,53.50
2018-03-23T21:13:03.757Z,54.50
2018-03-23T21:14:05.569Z,54.00
2018-03-23T21:15:07.036Z,54.00
2018-03-23T21:16:08.562Z,54.00
2018-03-23T21:18:13.205Z,53.80
2018-03-23T21:19:15.793Z,53.90
2018-03-23T21:20:17.212Z,53.90
2018-03-23T21:21:18.632Z,53.90
2018-03-23T21:22:20.784Z,54.00
2018-03-23T21:23:23.732Z,54.10
2018-03-23T21:24:25.204Z,54.00
2018-03-23T21:25:26.710Z,53.90
2018-03-23T21:26:29.618Z,53.90
2018-03-23T21:29:38.712Z,53.90
2018-03-23T21:30:40.119Z,53.80
2018-03-23T21:31:41.878Z,53.80
2018-03-23T21:32:43.293Z,53.80
2018-03-23T21:33:44.690Z,53.70
2018-03-23T21:34:46.070Z,53.70
2018-03-23T21:35:48.577Z,53.70
2018-03-23T21:36:50.753Z,53.60
2018-03-23T21:37:52.159Z,53.60
2018-03-23T21:38:53.554Z,53.40
2018-03-23T21:42:01.931Z,53.80
2018-03-23T21:43:04.069Z,53.70
2018-03-23T21:44:05.483Z,53.20
2018-03-23T21:45:07.602Z,53.80
2018-03-23T21:46:09.408Z,53.20
2018-03-23T21:47:12.489Z,53.80
2018-03-23T21:48:14.634Z,53.20
2018-03-23T21:49:16.048Z,53.10
2018-03-23T21:50:17.548Z,53.00
2018-03-23T21:51:18.990Z,52.90
2018-03-23T21:52:20.418Z,52.70
2018-03-23T21:53:22.956Z,52.70
2018-03-23T21:54:24.344Z,52.70
2018-03-23T21:55:25.754Z,52.70
2018-03-23T21:56:27.158Z,52.90
2018-03-23T21:57:30.403Z,51.70
2018-03-23T21:58:31.801Z,53.10
2018-03-23T21:59:33.186Z,53.20
2018-03-23T22:01:37.693Z,53.20
2018-03-23T22:02:39.114Z,53.30
2018-03-23T22:03:42.010Z,53.20
2018-03-23T22:04:43.410Z,53.10
2018-03-23T22:07:51.386Z,53.10
2018-03-23T22:08:52.802Z,53.10
2018-03-23T22:09:54.273Z,53.10
2018-03-23T22:10:55.670Z,53.00
2018-03-23T22:11:59.510Z,53.50
2018-03-23T22:13:03.535Z,53.00
2018-03-23T22:14:05.106Z,52.90
2018-03-23T22:15:06.545Z,52.80
2018-03-23T22:16:07.942Z,52.80
2018-03-23T22:18:12.576Z,52.60
2018-03-23T22:19:13.981Z,52.70
2018-03-23T22:20:15.387Z,52.70
2018-03-23T22:21:16.794Z,52.60
2018-03-23T22:22:18.186Z,52.80
2018-03-23T22:23:20.690Z,52.90
2018-03-23T22:24:22.153Z,52.80
2018-03-23T22:25:26.896Z,52.50
2018-03-23T22:26:28.430Z,52.40
2018-03-23T22:27:30.942Z,52.40
2018-03-23T22:29:35.442Z,52.20
2018-03-23T22:30:36.830Z,52.30
2018-03-23T22:32:41.871Z,52.20
2018-03-23T22:33:43.300Z,52.20
2018-03-23T22:34:45.544Z,52.20
2018-03-23T22:36:52.782Z,52.40
2018-03-23T22:37:54.150Z,52.40
2018-03-23T22:38:55.546Z,52.40
2018-03-23T22:41:00.084Z,52.10
2018-03-23T22:42:02.268Z,51.90
2018-03-23T22:43:04.390Z,52.50
2018-03-23T22:44:05.818Z,52.10
2018-03-23T22:45:08.346Z,51.80
2018-03-23T22:46:11.410Z,51.70
2018-03-23T22:47:13.572Z,51.60
2018-03-23T22:48:16.434Z,51.70
2018-03-23T22:49:17.910Z,51.70
2018-03-23T22:50:22.112Z,51.80
2018-03-23T22:51:23.486Z,51.80
2018-03-23T22:53:31.992Z,52.10
2018-03-23T22:54:34.277Z,52.00
2018-03-23T22:55:41.910Z,52.10
2018-03-23T22:56:44.174Z,52.00
2018-03-23T22:57:49.382Z,52.00
2018-03-23T22:58:51.344Z,51.90
2018-03-23T22:59:52.767Z,51.70
2018-03-23T23:00:54.293Z,51.70
2018-03-23T23:02:59.540Z,51.60
2018-03-23T23:04:00.951Z,51.60
2018-03-23T23:05:02.384Z,51.80
2018-03-23T23:06:03.782Z,51.70
2018-03-23T23:07:05.188Z,51.60
2018-03-23T23:08:07.318Z,52.10
2018-03-23T23:09:08.726Z,51.50
2018-03-23T23:10:10.445Z,51.60
2018-03-23T23:11:11.866Z,51.60
2018-03-23T23:12:14.808Z,51.60
2018-03-23T23:13:16.266Z,51.50
2018-03-23T23:14:17.666Z,51.50
2018-03-23T23:15:19.086Z,51.50
2018-03-23T23:16:20.470Z,51.40
2018-03-23T23:17:22.626Z,51.40
2018-03-23T23:19:27.182Z,51.60
2018-03-23T23:20:31.361Z,51.60
2018-03-23T23:21:33.738Z,51.60
2018-03-23T23:22:35.158Z,51.50
2018-03-23T23:23:37.671Z,51.30
2018-03-23T23:24:39.063Z,51.20
2018-03-23T23:25:40.471Z,51.40
2018-03-23T23:27:45.683Z,51.30
2018-03-23T23:28:47.089Z,51.30
2018-03-23T23:29:49.240Z,51.90
2018-03-23T23:30:50.646Z,51.60
2018-03-23T23:31:52.057Z,51.50
2018-03-23T23:32:56.550Z,51.60
2018-03-23T23:33:58.910Z,51.40
2018-03-23T23:35:00.325Z,51.30
2018-03-23T23:38:08.673Z,51.70
2018-03-23T23:39:10.078Z,51.20
2018-03-23T23:40:11.722Z,51.20
2018-03-23T23:41:13.134Z,51.00
2018-03-23T23:42:14.526Z,51.10
2018-03-23T23:43:15.924Z,51.00
2018-03-23T23:44:18.054Z,51.70
2018-03-23T23:45:19.454Z,51.20
2018-03-23T23:46:21.122Z,51.10
2018-03-23T23:47:22.510Z,51.10
2018-03-23T23:48:23.902Z,51.00
2018-03-23T23:49:25.295Z,51.00
2018-03-23T23:50:26.698Z,50.90
2018-03-23T23:51:28.936Z,51.00
2018-03-23T23:52:31.070Z,51.10
2018-03-23T23:53:33.298Z,51.50
2018-03-23T23:54:34.739Z,51.00
2018-03-23T23:55:36.134Z,51.10
2018-03-23T23:56:37.542Z,50.80
2018-03-23T23:57:38.924Z,50.80
2018-03-23T23:58:40.347Z,50.80
2018-03-23T23:59:42.370Z,50.70
